sensor_id;sensor_type;location;lat;lon;timestamp;temperature;humidity
9790;DHT22;4934;50.852;8.098;2022-07-29T00:01:00;18.10;99.90
9790;DHT22;4934;50.852;8.098;2022-07-29T00:03:26;18.10;99.90
9790;DHT22;4934;50.852;8.098;2022-07-29T00:05:52;18.10;99.90
9790;DHT22;4934;50.852;8.098;2022-07-29T00:08:19;17.90;99.90
9790;DHT22;4934;50.852;8.098;2022-07-29T00:10:44;17.70;99.90
9790;DHT22;4934;50.852;8.098;2022-07-29T00:13:10;17.50;99.90
9790;DHT22;4934;50.852;8.098;2022-07-29T00:15:36;17.40;99.90
9790;DHT22;4934;50.852;8.098;2022-07-29T00:18:05;17.10;99.90
9790;DHT22;4934;50.852;8.098;2022-07-29T00:20:31;16.90;99.90
9790;DHT22;4934;50.852;8.098;2022-07-29T00:22:57;16.80;99.90
9790;DHT22;4934;50.852;8.098;2022-07-29T00:25:29;16.50;99.90
9790;DHT22;4934;50.852;8.098;2022-07-29T00:27:58;16.40;99.90
9790;DHT22;4934;50.852;8.098;2022-07-29T00:30:23;16.20;99.90
9790;DHT22;4934;50.852;8.098;2022-07-29T00:32:49;16.10;99.90
9790;DHT22;4934;50.852;8.098;2022-07-29T00:35:14;16.00;99.90
9790;DHT22;4934;50.852;8.098;2022-07-29T00:37:58;15.90;99.90
9790;DHT22;4934;50.852;8.098;2022-07-29T00:40:24;15.90;99.90
9790;DHT22;4934;50.852;8.098;2022-07-29T00:42:51;15.80;99.90
9790;DHT22;4934;50.852;8.098;2022-07-29T00:45:17;15.80;99.90
9790;DHT22;4934;50.852;8.098;2022-07-29T00:47:44;15.70;99.90
9790;DHT22;4934;50.852;8.098;2022-07-29T00:50:11;15.60;99.90
9790;DHT22;4934;50.852;8.098;2022-07-29T00:52:39;15.60;99.90
9790;DHT22;4934;50.852;8.098;2022-07-29T00:55:11;15.60;99.90
9790;DHT22;4934;50.852;8.098;2022-07-29T00:57:37;15.60;99.90
9790;DHT22;4934;50.852;8.098;2022-07-29T01:00:05;15.60;99.90
9790;DHT22;4934;50.852;8.098;2022-07-29T01:02:31;15.50;99.90
9790;DHT22;4934;50.852;8.098;2022-07-29T01:04:57;15.50;99.90
9790;DHT22;4934;50.852;8.098;2022-07-29T01:07:24;15.50;99.90
9790;DHT22;4934;50.852;8.098;2022-07-29T01:09:51;15.50;99.90
9790;DHT22;4934;50.852;8.098;2022-07-29T01:12:19;15.50;99.90
9790;DHT22;4934;50.852;8.098;2022-07-29T01:15:08;15.50;99.90
9790;DHT22;4934;50.852;8.098;2022-07-29T01:34:18;15.30;99.90
9790;DHT22;4934;50.852;8.098;2022-07-29T01:36:57;15.30;99.90
9790;DHT22;4934;50.852;8.098;2022-07-29T01:39:30;15.30;99.90
9790;DHT22;4934;50.852;8.098;2022-07-29T01:45:17;15.40;99.90
9790;DHT22;4934;50.852;8.098;2022-07-29T01:50:17;15.50;99.90
9790;DHT22;4934;50.852;8.098;2022-07-29T01:52:54;15.60;99.90
9790;DHT22;4934;50.852;8.098;2022-07-29T01:55:32;15.70;99.90
9790;DHT22;4934;50.852;8.098;2022-07-29T01:58:00;15.90;99.90
9790;DHT22;4934;50.852;8.098;2022-07-29T02:00:27;16.10;99.90
9790;DHT22;4934;50.852;8.098;2022-07-29T02:02:53;16.10;99.90
9790;DHT22;4934;50.852;8.098;2022-07-29T02:05:21;16.20;99.90
9790;DHT22;4934;50.852;8.098;2022-07-29T02:07:49;16.40;99.90
9790;DHT22;4934;50.852;8.098;2022-07-29T02:10:18;16.50;99.90
9790;DHT22;4934;50.852;8.098;2022-07-29T02:12:46;16.60;99.90
9790;DHT22;4934;50.852;8.098;2022-07-29T02:15:14;16.60;99.90
9790;DHT22;4934;50.852;8.098;2022-07-29T02:17:45;16.70;99.90
9790;DHT22;4934;50.852;8.098;2022-07-29T02:20:12;16.70;99.90
9790;DHT22;4934;50.852;8.098;2022-07-29T02:22:39;16.80;99.90
9790;DHT22;4934;50.852;8.098;2022-07-29T02:25:10;16.90;99.90
9790;DHT22;4934;50.852;8.098;2022-07-29T02:27:37;17.00;99.90
9790;DHT22;4934;50.852;8.098;2022-07-29T02:30:04;17.10;99.90
9790;DHT22;4934;50.852;8.098;2022-07-29T02:32:34;17.20;99.90
9790;DHT22;4934;50.852;8.098;2022-07-29T02:35:01;17.30;99.90
9790;DHT22;4934;50.852;8.098;2022-07-29T02:37:27;17.40;99.90
9790;DHT22;4934;50.852;8.098;2022-07-29T02:39:55;17.40;99.90
9790;DHT22;4934;50.852;8.098;2022-07-29T02:42:23;17.40;99.90
9790;DHT22;4934;50.852;8.098;2022-07-29T02:44:56;17.50;99.90
9790;DHT22;4934;50.852;8.098;2022-07-29T02:47:27;17.50;99.90
9790;DHT22;4934;50.852;8.098;2022-07-29T02:50:31;17.50;99.90
9790;DHT22;4934;50.852;8.098;2022-07-29T02:53:02;17.60;99.90
9790;DHT22;4934;50.852;8.098;2022-07-29T02:55:40;17.60;99.90
9790;DHT22;4934;50.852;8.098;2022-07-29T02:58:25;17.50;99.90
9790;DHT22;4934;50.852;8.098;2022-07-29T03:00:56;17.50;99.90
9790;DHT22;4934;50.852;8.098;2022-07-29T03:03:23;17.50;99.90
9790;DHT22;4934;50.852;8.098;2022-07-29T03:05:54;17.50;99.90
9790;DHT22;4934;50.852;8.098;2022-07-29T03:08:22;17.60;99.90
9790;DHT22;4934;50.852;8.098;2022-07-29T03:10:48;17.50;99.90
9790;DHT22;4934;50.852;8.098;2022-07-29T03:13:14;17.60;99.90
9790;DHT22;4934;50.852;8.098;2022-07-29T03:15:43;17.50;99.90
9790;DHT22;4934;50.852;8.098;2022-07-29T03:18:10;17.50;99.90
9790;DHT22;4934;50.852;8.098;2022-07-29T03:20:37;17.40;99.90
9790;DHT22;4934;50.852;8.098;2022-07-29T03:23:03;17.50;99.90
9790;DHT22;4934;50.852;8.098;2022-07-29T03:25:29;17.50;99.90
9790;DHT22;4934;50.852;8.098;2022-07-29T03:27:55;17.50;99.90
9790;DHT22;4934;50.852;8.098;2022-07-29T03:30:22;17.40;99.90
9790;DHT22;4934;50.852;8.098;2022-07-29T03:32:48;17.40;99.90
9790;DHT22;4934;50.852;8.098;2022-07-29T03:35:14;17.40;99.90
9790;DHT22;4934;50.852;8.098;2022-07-29T03:37:42;17.20;99.90
9790;DHT22;4934;50.852;8.098;2022-07-29T03:40:09;17.10;99.90
9790;DHT22;4934;50.852;8.098;2022-07-29T03:42:39;16.90;99.90
9790;DHT22;4934;50.852;8.098;2022-07-29T03:45:07;16.70;99.90
9790;DHT22;4934;50.852;8.098;2022-07-29T03:47:39;16.60;99.90
9790;DHT22;4934;50.852;8.098;2022-07-29T03:50:07;16.40;99.90
9790;DHT22;4934;50.852;8.098;2022-07-29T03:52:34;16.30;99.90
9790;DHT22;4934;50.852;8.098;2022-07-29T03:55:01;16.20;99.90
9790;DHT22;4934;50.852;8.098;2022-07-29T03:57:28;16.20;99.90
9790;DHT22;4934;50.852;8.098;2022-07-29T03:59:54;16.10;99.90
9790;DHT22;4934;50.852;8.098;2022-07-29T04:02:20;15.80;99.90
9790;DHT22;4934;50.852;8.098;2022-07-29T04:04:46;15.70;99.90
9790;DHT22;4934;50.852;8.098;2022-07-29T04:07:13;15.60;99.90
9790;DHT22;4934;50.852;8.098;2022-07-29T04:09:39;15.50;99.90
9790;DHT22;4934;50.852;8.098;2022-07-29T04:12:05;15.50;99.90
9790;DHT22;4934;50.852;8.098;2022-07-29T04:14:33;15.40;99.90
9790;DHT22;4934;50.852;8.098;2022-07-29T04:16:59;15.30;99.90
9790;DHT22;4934;50.852;8.098;2022-07-29T04:19:25;15.30;99.90
9790;DHT22;4934;50.852;8.098;2022-07-29T04:21:52;15.30;99.90
9790;DHT22;4934;50.852;8.098;2022-07-29T04:24:17;15.20;99.90
9790;DHT22;4934;50.852;8.098;2022-07-29T04:26:44;15.30;99.90
9790;DHT22;4934;50.852;8.098;2022-07-29T04:29:10;15.20;99.90
9790;DHT22;4934;50.852;8.098;2022-07-29T04:31:38;15.10;99.90
9790;DHT22;4934;50.852;8.098;2022-07-29T04:34:03;15.20;99.90
9790;DHT22;4934;50.852;8.098;2022-07-29T04:36:29;15.20;99.90
9790;DHT22;4934;50.852;8.098;2022-07-29T04:38:55;15.00;99.90
9790;DHT22;4934;50.852;8.098;2022-07-29T04:41:20;14.90;99.90
9790;DHT22;4934;50.852;8.098;2022-07-29T04:43:46;15.00;99.90
9790;DHT22;4934;50.852;8.098;2022-07-29T04:46:12;15.00;99.90
9790;DHT22;4934;50.852;8.098;2022-07-29T04:48:37;15.00;99.90
9790;DHT22;4934;50.852;8.098;2022-07-29T04:51:03;15.00;99.90
9790;DHT22;4934;50.852;8.098;2022-07-29T04:53:29;15.10;99.90
9790;DHT22;4934;50.852;8.098;2022-07-29T04:55:54;15.20;99.90
9790;DHT22;4934;50.852;8.098;2022-07-29T04:58:20;15.30;99.90
9790;DHT22;4934;50.852;8.098;2022-07-29T05:00:48;15.40;99.90
9790;DHT22;4934;50.852;8.098;2022-07-29T05:03:13;15.60;99.90
9790;DHT22;4934;50.852;8.098;2022-07-29T05:05:39;15.70;99.90
9790;DHT22;4934;50.852;8.098;2022-07-29T05:08:06;15.70;99.90
9790;DHT22;4934;50.852;8.098;2022-07-29T05:10:33;15.50;99.90
9790;DHT22;4934;50.852;8.098;2022-07-29T05:13:02;15.30;99.90
9790;DHT22;4934;50.852;8.098;2022-07-29T05:15:28;15.50;99.90
9790;DHT22;4934;50.852;8.098;2022-07-29T05:17:53;15.70;99.90
9790;DHT22;4934;50.852;8.098;2022-07-29T05:20:19;16.00;99.90
9790;DHT22;4934;50.852;8.098;2022-07-29T05:22:51;16.20;99.90
9790;DHT22;4934;50.852;8.098;2022-07-29T05:25:16;16.40;99.90
9790;DHT22;4934;50.852;8.098;2022-07-29T05:27:42;16.60;99.90
9790;DHT22;4934;50.852;8.098;2022-07-29T05:30:08;16.80;99.90
9790;DHT22;4934;50.852;8.098;2022-07-29T05:32:34;16.90;99.90
9790;DHT22;4934;50.852;8.098;2022-07-29T05:34:59;17.10;99.90
9790;DHT22;4934;50.852;8.098;2022-07-29T05:37:25;17.20;99.90
9790;DHT22;4934;50.852;8.098;2022-07-29T05:39:50;17.40;99.90
9790;DHT22;4934;50.852;8.098;2022-07-29T05:42:16;17.50;99.90
9790;DHT22;4934;50.852;8.098;2022-07-29T05:44:42;17.60;99.90
9790;DHT22;4934;50.852;8.098;2022-07-29T05:47:07;17.70;99.90
9790;DHT22;4934;50.852;8.098;2022-07-29T05:49:33;17.80;99.90
9790;DHT22;4934;50.852;8.098;2022-07-29T05:51:58;17.90;99.90
9790;DHT22;4934;50.852;8.098;2022-07-29T05:54:24;18.00;99.90
9790;DHT22;4934;50.852;8.098;2022-07-29T05:56:58;18.10;99.90
9790;DHT22;4934;50.852;8.098;2022-07-29T05:59:23;18.20;99.90
9790;DHT22;4934;50.852;8.098;2022-07-29T06:01:49;18.50;99.90
9790;DHT22;4934;50.852;8.098;2022-07-29T06:04:14;18.70;99.90
9790;DHT22;4934;50.852;8.098;2022-07-29T06:06:40;18.90;99.90
9790;DHT22;4934;50.852;8.098;2022-07-29T06:09:06;19.00;99.90
9790;DHT22;4934;50.852;8.098;2022-07-29T06:11:31;19.20;99.90
9790;DHT22;4934;50.852;8.098;2022-07-29T06:13:57;19.40;99.90
9790;DHT22;4934;50.852;8.098;2022-07-29T06:16:22;19.40;99.90
9790;DHT22;4934;50.852;8.098;2022-07-29T06:18:48;19.50;99.90
9790;DHT22;4934;50.852;8.098;2022-07-29T06:21:13;19.60;99.90
9790;DHT22;4934;50.852;8.098;2022-07-29T06:23:39;19.80;99.90
9790;DHT22;4934;50.852;8.098;2022-07-29T06:26:05;19.90;99.90
9790;DHT22;4934;50.852;8.098;2022-07-29T06:28:32;20.00;99.90
9790;DHT22;4934;50.852;8.098;2022-07-29T06:30:58;20.00;99.90
9790;DHT22;4934;50.852;8.098;2022-07-29T06:33:24;20.10;99.90
9790;DHT22;4934;50.852;8.098;2022-07-29T06:35:50;20.20;99.90
9790;DHT22;4934;50.852;8.098;2022-07-29T06:38:15;20.30;99.90
9790;DHT22;4934;50.852;8.098;2022-07-29T06:40:42;20.30;99.90
9790;DHT22;4934;50.852;8.098;2022-07-29T06:43:39;20.50;99.90
9790;DHT22;4934;50.852;8.098;2022-07-29T06:46:09;20.70;99.90
9790;DHT22;4934;50.852;8.098;2022-07-29T06:48:35;20.90;99.90
9790;DHT22;4934;50.852;8.098;2022-07-29T06:51:05;20.90;99.90
9790;DHT22;4934;50.852;8.098;2022-07-29T06:53:31;20.90;99.90
9790;DHT22;4934;50.852;8.098;2022-07-29T06:55:59;21.00;99.90
9790;DHT22;4934;50.852;8.098;2022-07-29T06:58:26;21.20;99.90
9790;DHT22;4934;50.852;8.098;2022-07-29T07:00:51;21.30;99.90
9790;DHT22;4934;50.852;8.098;2022-07-29T07:03:18;21.30;99.90
9790;DHT22;4934;50.852;8.098;2022-07-29T07:05:51;21.50;99.90
9790;DHT22;4934;50.852;8.098;2022-07-29T07:08:17;21.60;99.90
9790;DHT22;4934;50.852;8.098;2022-07-29T07:10:44;21.90;99.90
9790;DHT22;4934;50.852;8.098;2022-07-29T07:13:12;22.00;99.90
9790;DHT22;4934;50.852;8.098;2022-07-29T07:15:38;22.10;99.90
9790;DHT22;4934;50.852;8.098;2022-07-29T07:18:05;22.30;99.90
9790;DHT22;4934;50.852;8.098;2022-07-29T07:20:34;22.30;99.90
9790;DHT22;4934;50.852;8.098;2022-07-29T07:23:00;22.20;99.90
9790;DHT22;4934;50.852;8.098;2022-07-29T07:25:26;22.40;99.90
9790;DHT22;4934;50.852;8.098;2022-07-29T07:27:52;22.50;99.90
9790;DHT22;4934;50.852;8.098;2022-07-29T07:30:19;22.50;99.90
9790;DHT22;4934;50.852;8.098;2022-07-29T07:32:45;22.60;99.90
9790;DHT22;4934;50.852;8.098;2022-07-29T07:35:11;22.50;99.90
9790;DHT22;4934;50.852;8.098;2022-07-29T07:37:37;22.40;99.90
9790;DHT22;4934;50.852;8.098;2022-07-29T07:40:04;22.60;99.90
9790;DHT22;4934;50.852;8.098;2022-07-29T07:42:33;22.80;99.90
9790;DHT22;4934;50.852;8.098;2022-07-29T07:44:58;22.80;99.90
9790;DHT22;4934;50.852;8.098;2022-07-29T07:47:25;22.80;99.90
9790;DHT22;4934;50.852;8.098;2022-07-29T07:49:51;22.70;99.90
9790;DHT22;4934;50.852;8.098;2022-07-29T07:52:21;22.80;99.90
9790;DHT22;4934;50.852;8.098;2022-07-29T07:54:48;22.80;99.90
9790;DHT22;4934;50.852;8.098;2022-07-29T07:57:15;23.00;99.90
9790;DHT22;4934;50.852;8.098;2022-07-29T07:59:42;23.20;99.90
9790;DHT22;4934;50.852;8.098;2022-07-29T08:02:08;23.20;99.90
9790;DHT22;4934;50.852;8.098;2022-07-29T08:04:34;23.60;99.90
9790;DHT22;4934;50.852;8.098;2022-07-29T08:07:04;23.80;99.90
9790;DHT22;4934;50.852;8.098;2022-07-29T08:09:30;23.80;99.90
9790;DHT22;4934;50.852;8.098;2022-07-29T08:11:56;23.80;99.90
9790;DHT22;4934;50.852;8.098;2022-07-29T08:14:31;23.70;99.90
9790;DHT22;4934;50.852;8.098;2022-07-29T08:16:59;23.40;99.90
9790;DHT22;4934;50.852;8.098;2022-07-29T08:19:24;23.30;99.90
9790;DHT22;4934;50.852;8.098;2022-07-29T08:21:50;23.70;99.90
9790;DHT22;4934;50.852;8.098;2022-07-29T08:24:21;23.80;99.90
9790;DHT22;4934;50.852;8.098;2022-07-29T08:27:05;24.10;99.90
9790;DHT22;4934;50.852;8.098;2022-07-29T08:29:31;24.60;99.90
9790;DHT22;4934;50.852;8.098;2022-07-29T08:31:56;24.80;99.90
9790;DHT22;4934;50.852;8.098;2022-07-29T08:34:22;25.10;99.90
9790;DHT22;4934;50.852;8.098;2022-07-29T08:36:51;24.90;99.90
9790;DHT22;4934;50.852;8.098;2022-07-29T08:39:17;24.90;99.90
9790;DHT22;4934;50.852;8.098;2022-07-29T08:41:42;25.00;99.90
9790;DHT22;4934;50.852;8.098;2022-07-29T08:44:08;24.60;99.90
9790;DHT22;4934;50.852;8.098;2022-07-29T08:46:47;24.60;99.90
9790;DHT22;4934;50.852;8.098;2022-07-29T08:49:15;24.60;99.90
9790;DHT22;4934;50.852;8.098;2022-07-29T08:51:41;24.20;99.90
9790;DHT22;4934;50.852;8.098;2022-07-29T08:54:08;24.10;99.90
9790;DHT22;4934;50.852;8.098;2022-07-29T08:56:40;24.40;99.90
9790;DHT22;4934;50.852;8.098;2022-07-29T08:59:07;24.50;99.90
9790;DHT22;4934;50.852;8.098;2022-07-29T09:01:36;24.70;99.90
9790;DHT22;4934;50.852;8.098;2022-07-29T09:04:05;24.70;99.90
9790;DHT22;4934;50.852;8.098;2022-07-29T09:06:48;25.00;99.90
9790;DHT22;4934;50.852;8.098;2022-07-29T09:09:15;25.30;99.90
9790;DHT22;4934;50.852;8.098;2022-07-29T09:11:43;25.50;99.90
9790;DHT22;4934;50.852;8.098;2022-07-29T09:14:12;25.60;99.90
9790;DHT22;4934;50.852;8.098;2022-07-29T09:16:50;25.80;99.90
9790;DHT22;4934;50.852;8.098;2022-07-29T09:19:32;25.60;99.90
9790;DHT22;4934;50.852;8.098;2022-07-29T09:22:01;25.90;99.90
9790;DHT22;4934;50.852;8.098;2022-07-29T09:24:44;25.70;99.90
9790;DHT22;4934;50.852;8.098;2022-07-29T09:27:31;25.80;99.90
9790;DHT22;4934;50.852;8.098;2022-07-29T09:30:09;26.10;99.90
9790;DHT22;4934;50.852;8.098;2022-07-29T09:33:00;26.30;99.90
9790;DHT22;4934;50.852;8.098;2022-07-29T09:35:29;26.60;99.90
9790;DHT22;4934;50.852;8.098;2022-07-29T09:38:13;26.60;99.90
9790;DHT22;4934;50.852;8.098;2022-07-29T09:41:01;26.70;99.90
9790;DHT22;4934;50.852;8.098;2022-07-29T09:43:33;26.60;99.90
9790;DHT22;4934;50.852;8.098;2022-07-29T09:46:20;26.50;99.90
9790;DHT22;4934;50.852;8.098;2022-07-29T09:49:10;26.90;99.90
9790;DHT22;4934;50.852;8.098;2022-07-29T09:54:24;27.00;99.90
9790;DHT22;4934;50.852;8.098;2022-07-29T09:56:52;26.80;99.90
9790;DHT22;4934;50.852;8.098;2022-07-29T09:59:18;26.90;99.90
9790;DHT22;4934;50.852;8.098;2022-07-29T10:01:46;26.90;99.90
9790;DHT22;4934;50.852;8.098;2022-07-29T10:04:11;26.70;99.90
9790;DHT22;4934;50.852;8.098;2022-07-29T10:06:56;26.90;99.90
9790;DHT22;4934;50.852;8.098;2022-07-29T10:09:24;26.90;99.90
9790;DHT22;4934;50.852;8.098;2022-07-29T10:12:06;26.80;99.90
9790;DHT22;4934;50.852;8.098;2022-07-29T10:20:04;26.60;99.90
9790;DHT22;4934;50.852;8.098;2022-07-29T10:23:02;26.90;99.90
9790;DHT22;4934;50.852;8.098;2022-07-29T10:25:28;27.00;99.90
9790;DHT22;4934;50.852;8.098;2022-07-29T10:34:19;27.80;99.90
9790;DHT22;4934;50.852;8.098;2022-07-29T10:39:58;28.10;99.90
9790;DHT22;4934;50.852;8.098;2022-07-29T10:48:24;28.00;97.10
9790;DHT22;4934;50.852;8.098;2022-07-29T10:58:33;28.70;99.30
9790;DHT22;4934;50.852;8.098;2022-07-29T11:01:30;28.40;97.10
9790;DHT22;4934;50.852;8.098;2022-07-29T11:04:00;28.60;99.90
9790;DHT22;4934;50.852;8.098;2022-07-29T11:27:11;29.30;94.50
9790;DHT22;4934;50.852;8.098;2022-07-29T11:32:50;28.30;94.50
9790;DHT22;4934;50.852;8.098;2022-07-29T11:35:20;28.40;95.30
9790;DHT22;4934;50.852;8.098;2022-07-29T11:40:23;28.10;96.10
9790;DHT22;4934;50.852;8.098;2022-07-29T11:42:55;28.30;95.60
9790;DHT22;4934;50.852;8.098;2022-07-29T11:45:25;28.20;95.60
9790;DHT22;4934;50.852;8.098;2022-07-29T11:47:56;28.40;96.00
9790;DHT22;4934;50.852;8.098;2022-07-29T11:50:36;28.10;94.30
9790;DHT22;4934;50.852;8.098;2022-07-29T11:53:11;28.20;95.40
9790;DHT22;4934;50.852;8.098;2022-07-29T11:55:41;28.50;94.90
9790;DHT22;4934;50.852;8.098;2022-07-29T11:58:07;28.60;94.30
9790;DHT22;4934;50.852;8.098;2022-07-29T12:00:38;28.80;93.40
9790;DHT22;4934;50.852;8.098;2022-07-29T12:03:09;28.30;93.90
9790;DHT22;4934;50.852;8.098;2022-07-29T12:05:42;28.10;94.40
9790;DHT22;4934;50.852;8.098;2022-07-29T12:08:19;27.80;94.30
9790;DHT22;4934;50.852;8.098;2022-07-29T12:11:04;27.80;94.00
9790;DHT22;4934;50.852;8.098;2022-07-29T12:13:41;27.90;93.90
9790;DHT22;4934;50.852;8.098;2022-07-29T12:16:06;27.90;94.10
9790;DHT22;4934;50.852;8.098;2022-07-29T12:28:46;28.60;94.10
9790;DHT22;4934;50.852;8.098;2022-07-29T12:31:16;28.60;94.90
9790;DHT22;4934;50.852;8.098;2022-07-29T12:33:52;28.50;93.20
9790;DHT22;4934;50.852;8.098;2022-07-29T12:36:23;28.80;94.70
9790;DHT22;4934;50.852;8.098;2022-07-29T12:38:52;29.10;93.60
9790;DHT22;4934;50.852;8.098;2022-07-29T12:41:30;29.10;93.70
9790;DHT22;4934;50.852;8.098;2022-07-29T12:44:51;29.00;93.40
9790;DHT22;4934;50.852;8.098;2022-07-29T12:47:55;28.70;93.40
9790;DHT22;4934;50.852;8.098;2022-07-29T12:50:25;28.90;92.30
9790;DHT22;4934;50.852;8.098;2022-07-29T12:52:52;29.30;96.20
9790;DHT22;4934;50.852;8.098;2022-07-29T12:55:47;29.70;92.00
9790;DHT22;4934;50.852;8.098;2022-07-29T12:58:48;29.80;92.00
9790;DHT22;4934;50.852;8.098;2022-07-29T13:01:16;30.20;92.20
9790;DHT22;4934;50.852;8.098;2022-07-29T13:03:59;29.60;90.20
9790;DHT22;4934;50.852;8.098;2022-07-29T13:06:57;28.90;90.80
9790;DHT22;4934;50.852;8.098;2022-07-29T13:09:23;27.90;92.20
9790;DHT22;4934;50.852;8.098;2022-07-29T13:11:54;28.20;91.90
9790;DHT22;4934;50.852;8.098;2022-07-29T13:14:45;27.80;91.70
9790;DHT22;4934;50.852;8.098;2022-07-29T13:17:19;28.00;91.80
9790;DHT22;4934;50.852;8.098;2022-07-29T13:19:53;27.50;92.50
9790;DHT22;4934;50.852;8.098;2022-07-29T13:22:30;27.30;93.10
9790;DHT22;4934;50.852;8.098;2022-07-29T13:24:59;27.40;93.60
9790;DHT22;4934;50.852;8.098;2022-07-29T13:27:29;27.80;93.10
9790;DHT22;4934;50.852;8.098;2022-07-29T13:29:56;28.10;92.20
9790;DHT22;4934;50.852;8.098;2022-07-29T13:32:24;28.10;92.30
9790;DHT22;4934;50.852;8.098;2022-07-29T13:34:51;28.40;92.40
9790;DHT22;4934;50.852;8.098;2022-07-29T13:37:17;28.10;91.20
9790;DHT22;4934;50.852;8.098;2022-07-29T13:39:43;28.20;92.20
9790;DHT22;4934;50.852;8.098;2022-07-29T13:42:09;28.60;91.80
9790;DHT22;4934;50.852;8.098;2022-07-29T13:44:35;28.90;92.00
9790;DHT22;4934;50.852;8.098;2022-07-29T13:47:01;29.10;92.20
9790;DHT22;4934;50.852;8.098;2022-07-29T13:49:28;29.10;91.20
9790;DHT22;4934;50.852;8.098;2022-07-29T13:52:02;29.10;90.30
9790;DHT22;4934;50.852;8.098;2022-07-29T13:54:35;28.60;91.20
9790;DHT22;4934;50.852;8.098;2022-07-29T13:57:12;28.70;91.70
9790;DHT22;4934;50.852;8.098;2022-07-29T13:59:43;28.40;91.10
9790;DHT22;4934;50.852;8.098;2022-07-29T14:02:10;28.60;91.60
9790;DHT22;4934;50.852;8.098;2022-07-29T14:04:36;28.70;92.90
9790;DHT22;4934;50.852;8.098;2022-07-29T14:07:03;29.00;92.40
9790;DHT22;4934;50.852;8.098;2022-07-29T14:09:29;29.30;93.00
9790;DHT22;4934;50.852;8.098;2022-07-29T14:11:55;29.50;91.00
9790;DHT22;4934;50.852;8.098;2022-07-29T14:14:21;29.40;90.00
9790;DHT22;4934;50.852;8.098;2022-07-29T14:16:47;29.70;91.50
9790;DHT22;4934;50.852;8.098;2022-07-29T14:19:13;29.70;90.20
9790;DHT22;4934;50.852;8.098;2022-07-29T14:21:38;29.60;89.50
9790;DHT22;4934;50.852;8.098;2022-07-29T14:24:06;29.40;89.80
9790;DHT22;4934;50.852;8.098;2022-07-29T14:26:34;28.50;88.10
9790;DHT22;4934;50.852;8.098;2022-07-29T14:29:02;27.90;88.40
9790;DHT22;4934;50.852;8.098;2022-07-29T14:31:28;27.80;89.50
9790;DHT22;4934;50.852;8.098;2022-07-29T14:33:55;27.90;89.50
9790;DHT22;4934;50.852;8.098;2022-07-29T14:36:22;28.20;91.10
9790;DHT22;4934;50.852;8.098;2022-07-29T14:38:47;28.60;90.70
9790;DHT22;4934;50.852;8.098;2022-07-29T14:41:15;28.90;91.40
9790;DHT22;4934;50.852;8.098;2022-07-29T14:43:45;29.10;90.60
9790;DHT22;4934;50.852;8.098;2022-07-29T14:46:11;29.30;90.60
9790;DHT22;4934;50.852;8.098;2022-07-29T14:48:37;29.50;92.00
9790;DHT22;4934;50.852;8.098;2022-07-29T14:51:03;29.80;94.50
9790;DHT22;4934;50.852;8.098;2022-07-29T14:53:31;30.00;93.90
9790;DHT22;4934;50.852;8.098;2022-07-29T14:56:04;30.00;90.40
9790;DHT22;4934;50.852;8.098;2022-07-29T14:58:30;30.00;88.60
9790;DHT22;4934;50.852;8.098;2022-07-29T15:00:56;29.90;90.60
9790;DHT22;4934;50.852;8.098;2022-07-29T15:03:34;29.90;91.80
9790;DHT22;4934;50.852;8.098;2022-07-29T15:06:01;29.70;89.70
9790;DHT22;4934;50.852;8.098;2022-07-29T15:08:30;28.10;88.70
9790;DHT22;4934;50.852;8.098;2022-07-29T15:10:56;27.50;91.70
9790;DHT22;4934;50.852;8.098;2022-07-29T15:13:25;27.30;92.70
9790;DHT22;4934;50.852;8.098;2022-07-29T15:15:52;27.40;99.00
9790;DHT22;4934;50.852;8.098;2022-07-29T15:18:18;27.50;99.90
9790;DHT22;4934;50.852;8.098;2022-07-29T15:20:45;27.30;99.90
9790;DHT22;4934;50.852;8.098;2022-07-29T15:25:49;26.70;99.90
9790;DHT22;4934;50.852;8.098;2022-07-29T15:28:18;26.20;99.90
9790;DHT22;4934;50.852;8.098;2022-07-29T15:33:14;26.10;99.90
9790;DHT22;4934;50.852;8.098;2022-07-29T15:35:40;26.10;99.90
9790;DHT22;4934;50.852;8.098;2022-07-29T15:38:06;26.20;99.90
9790;DHT22;4934;50.852;8.098;2022-07-29T15:40:36;25.90;98.60
9790;DHT22;4934;50.852;8.098;2022-07-29T15:43:09;25.70;99.90
9790;DHT22;4934;50.852;8.098;2022-07-29T15:45:36;25.60;98.70
9790;DHT22;4934;50.852;8.098;2022-07-29T15:48:07;25.90;99.70
9790;DHT22;4934;50.852;8.098;2022-07-29T15:50:33;26.00;99.90
9790;DHT22;4934;50.852;8.098;2022-07-29T15:52:59;25.90;99.90
9790;DHT22;4934;50.852;8.098;2022-07-29T15:55:24;26.00;99.40
9790;DHT22;4934;50.852;8.098;2022-07-29T15:57:50;26.10;99.80
9790;DHT22;4934;50.852;8.098;2022-07-29T16:00:18;26.10;98.50
9790;DHT22;4934;50.852;8.098;2022-07-29T16:02:47;26.30;99.70
9790;DHT22;4934;50.852;8.098;2022-07-29T16:05:13;26.70;99.80
9790;DHT22;4934;50.852;8.098;2022-07-29T16:07:39;26.50;99.30
9790;DHT22;4934;50.852;8.098;2022-07-29T16:10:07;26.70;99.90
9790;DHT22;4934;50.852;8.098;2022-07-29T16:12:33;26.60;99.30
9790;DHT22;4934;50.852;8.098;2022-07-29T16:15:04;26.50;99.20
9790;DHT22;4934;50.852;8.098;2022-07-29T16:17:31;26.10;99.60
9790;DHT22;4934;50.852;8.098;2022-07-29T16:19:56;26.40;99.40
9790;DHT22;4934;50.852;8.098;2022-07-29T16:22:25;26.40;99.20
9790;DHT22;4934;50.852;8.098;2022-07-29T16:24:52;26.60;98.90
9790;DHT22;4934;50.852;8.098;2022-07-29T16:27:34;26.40;98.00
9790;DHT22;4934;50.852;8.098;2022-07-29T16:30:00;26.50;97.50
9790;DHT22;4934;50.852;8.098;2022-07-29T16:32:25;26.50;97.10
9790;DHT22;4934;50.852;8.098;2022-07-29T16:34:51;26.50;96.60
9790;DHT22;4934;50.852;8.098;2022-07-29T16:37:17;26.20;97.20
9790;DHT22;4934;50.852;8.098;2022-07-29T16:39:43;25.80;97.10
9790;DHT22;4934;50.852;8.098;2022-07-29T16:42:09;25.50;96.90
9790;DHT22;4934;50.852;8.098;2022-07-29T16:44:34;25.80;98.30
9790;DHT22;4934;50.852;8.098;2022-07-29T16:47:02;26.10;98.20
9790;DHT22;4934;50.852;8.098;2022-07-29T16:49:28;26.30;97.50
9790;DHT22;4934;50.852;8.098;2022-07-29T16:51:55;26.30;98.20
9790;DHT22;4934;50.852;8.098;2022-07-29T16:54:24;26.30;98.20
9790;DHT22;4934;50.852;8.098;2022-07-29T16:56:52;26.00;97.60
9790;DHT22;4934;50.852;8.098;2022-07-29T16:59:18;25.90;98.30
9790;DHT22;4934;50.852;8.098;2022-07-29T17:01:49;25.90;99.90
9790;DHT22;4934;50.852;8.098;2022-07-29T17:04:19;25.20;99.90
9790;DHT22;4934;50.852;8.098;2022-07-29T17:07:08;25.20;99.90
9790;DHT22;4934;50.852;8.098;2022-07-29T17:09:39;25.50;99.90
9790;DHT22;4934;50.852;8.098;2022-07-29T17:12:05;25.70;99.90
9790;DHT22;4934;50.852;8.098;2022-07-29T17:14:31;25.30;99.90
9790;DHT22;4934;50.852;8.098;2022-07-29T17:17:00;25.10;99.90
9790;DHT22;4934;50.852;8.098;2022-07-29T17:22:42;24.40;99.90
9790;DHT22;4934;50.852;8.098;2022-07-29T17:25:10;24.20;99.90
9790;DHT22;4934;50.852;8.098;2022-07-29T17:27:42;24.00;99.90
9790;DHT22;4934;50.852;8.098;2022-07-29T17:30:23;24.00;99.90
9790;DHT22;4934;50.852;8.098;2022-07-29T17:32:50;23.70;99.90
9790;DHT22;4934;50.852;8.098;2022-07-29T17:35:17;23.60;99.90
9790;DHT22;4934;50.852;8.098;2022-07-29T17:38:03;23.60;99.90
9790;DHT22;4934;50.852;8.098;2022-07-29T17:40:30;23.40;99.90
9790;DHT22;4934;50.852;8.098;2022-07-29T17:43:00;23.20;99.90
9790;DHT22;4934;50.852;8.098;2022-07-29T17:45:46;23.10;99.90
9790;DHT22;4934;50.852;8.098;2022-07-29T17:48:13;23.10;99.90
9790;DHT22;4934;50.852;8.098;2022-07-29T17:50:46;22.70;99.90
9790;DHT22;4934;50.852;8.098;2022-07-29T17:53:15;22.50;99.90
9790;DHT22;4934;50.852;8.098;2022-07-29T17:55:55;22.50;99.90